Time;durP1;ratioP1;P1;durP2;ratioP2;P2;SDS_P1;SDS_P2;PMS_P1;PMS_P2;Temp;Humidity;BMP_temperature;BMP_pressure;BME280_temperature;BME280_humidity;BME280_pressure;Samples;Min_cycle;Max_cycle;Signal;HPM_P1;HPM_P2
2021/07/30 00:00:29;;;;;;;7.37;3.17;;;;;;;17.60;50.43;100757.75;6233683;28;20229;-53
2021/07/30 00:03:50;;;;;;;6.27;2.93;;;;;;;17.55;50.83;100750.94;6232814;28;20341;-49
2021/07/30 00:07:10;;;;;;;5.30;3.30;;;;;;;17.65;50.70;100747.88;6228149;28;20322;-51
2021/07/30 00:10:31;;;;;;;4.87;2.57;;;;;;;17.68;50.42;100752.16;6231573;28;20324;-52
2021/07/30 00:13:54;;;;;;;8.93;3.43;;;;;;;17.44;51.13;100746.94;6241052;28;20236;-55
2021/07/30 00:17:15;;;;;;;6.93;2.83;;;;;;;17.59;50.81;100747.25;6241666;28;20248;-54
2021/07/30 00:20:35;;;;;;;4.53;2.87;;;;;;;17.32;51.50;100744.78;6224008;28;20288;-50
2021/07/30 00:23:57;;;;;;;8.33;3.30;;;;;;;17.35;51.55;100747.31;6232783;28;20240;-53
2021/07/30 00:27:17;;;;;;;8.83;3.20;;;;;;;17.54;50.98;100751.84;6244379;28;20227;-54
2021/07/30 00:30:39;;;;;;;7.80;3.07;;;;;;;17.00;52.40;100746.84;6233238;28;20236;-53
2021/07/30 00:34:00;;;;;;;5.87;2.37;;;;;;;16.90;52.37;100740.19;6229204;28;20606;-51
2021/07/30 00:37:21;;;;;;;9.13;3.07;;;;;;;16.96;52.48;100747.00;6229290;28;20233;-54
2021/07/30 00:40:42;;;;;;;7.03;3.80;;;;;;;16.99;52.36;100746.91;6235454;28;20255;-48
2021/07/30 00:44:03;;;;;;;7.17;3.00;;;;;;;17.11;51.96;100742.03;6223668;28;20224;-51
2021/07/30 00:47:26;;;;;;;6.63;2.97;;;;;;;17.29;51.38;100750.16;6237580;28;20232;-54
2021/07/30 00:50:48;;;;;;;5.50;2.93;;;;;;;16.90;52.57;100748.09;6224214;28;20219;-53
2021/07/30 00:54:09;;;;;;;8.17;3.07;;;;;;;16.79;52.78;100756.34;6223930;28;20229;-51
2021/07/30 00:57:30;;;;;;;8.63;2.97;;;;;;;17.17;51.76;100745.34;6234802;28;20460;-53
2021/07/30 01:00:51;;;;;;;5.47;3.20;;;;;;;16.83;52.92;100746.63;6235476;28;20237;-53
2021/07/30 01:04:13;;;;;;;8.10;2.97;;;;;;;16.90;52.68;100745.47;6226449;28;20232;-54
2021/07/30 01:07:34;;;;;;;7.53;3.93;;;;;;;16.88;52.85;100742.03;6233052;28;20225;-48
2021/07/30 01:10:55;;;;;;;6.97;2.90;;;;;;;16.74;53.21;100750.38;6233442;28;20227;-48
2021/07/30 01:14:15;;;;;;;8.03;3.30;;;;;;;17.03;52.61;100737.97;6236483;28;20260;-53
2021/07/30 01:17:36;;;;;;;8.37;3.33;;;;;;;17.21;51.98;100746.97;6240723;28;20235;-52
2021/07/30 01:21:08;;;;;;;4.67;2.50;;;;;;;16.96;52.73;100737.34;6192847;28;20237;-50
2021/07/30 01:24:30;;;;;;;8.47;3.57;;;;;;;17.09;52.19;100743.00;6234706;28;20225;-53
2021/07/30 01:27:52;;;;;;;6.73;3.00;;;;;;;16.90;52.53;100738.44;6242938;28;20315;-51
2021/07/30 01:31:13;;;;;;;5.30;3.27;;;;;;;16.69;53.04;100736.53;6247491;28;20272;-52
2021/07/30 01:34:34;;;;;;;6.47;2.63;;;;;;;16.59;53.12;100738.63;6234360;28;20220;-53
2021/07/30 01:37:55;;;;;;;10.90;3.77;;;;;;;16.83;52.40;100733.47;6242037;28;20233;-47
2021/07/30 01:41:18;;;;;;;11.63;3.90;;;;;;;16.49;53.47;100732.00;6237883;28;20228;-54
2021/07/30 01:44:38;;;;;;;6.83;3.10;;;;;;;16.56;52.94;100732.66;6239047;28;20506;-52
2021/07/30 01:47:59;;;;;;;4.73;2.70;;;;;;;16.82;52.13;100734.38;6236582;28;20943;-51
2021/07/30 01:51:20;;;;;;;5.80;3.10;;;;;;;16.61;52.83;100730.69;6233407;28;20227;-53
2021/07/30 01:54:41;;;;;;;7.23;3.70;;;;;;;16.43;53.26;100729.59;6236128;28;20225;-53
2021/07/30 01:58:03;;;;;;;5.83;2.80;;;;;;;16.65;52.35;100733.19;6235347;28;20308;-52
2021/07/30 02:01:24;;;;;;;6.77;2.60;;;;;;;16.50;52.81;100725.84;6241515;28;20654;-50
2021/07/30 02:04:46;;;;;;;7.40;3.73;;;;;;;16.69;52.21;100728.66;6232208;28;20752;-48
2021/07/30 02:08:07;;;;;;;5.23;2.77;;;;;;;16.60;52.48;100740.38;6231861;28;20241;-51
2021/07/30 02:11:28;;;;;;;9.63;3.60;;;;;;;16.71;52.13;100725.06;6242752;28;20229;-52
2021/07/30 02:14:49;;;;;;;11.87;2.93;;;;;;;16.60;52.39;100700.94;6247100;28;20224;-50
2021/07/30 02:18:10;;;;;;;7.23;3.27;;;;;;;16.56;52.32;100728.25;6227314;28;20233;-50
2021/07/30 02:21:31;;;;;;;7.70;3.53;;;;;;;16.21;53.61;100727.69;6221697;28;20233;-49
2021/07/30 02:24:52;;;;;;;6.57;3.63;;;;;;;16.22;53.62;100715.41;6210040;28;20233;-53
2021/07/30 02:28:12;;;;;;;6.30;3.00;;;;;;;16.25;53.40;100726.69;6232685;28;20241;-53
2021/07/30 02:31:35;;;;;;;5.33;3.20;;;;;;;16.12;53.77;100728.00;6231069;28;20512;-53
2021/07/30 02:34:56;;;;;;;7.93;3.57;;;;;;;16.11;53.72;100723.63;6237490;28;20224;-53
2021/07/30 02:38:16;;;;;;;5.43;2.40;;;;;;;16.09;53.76;100717.56;6222989;28;20236;-52
2021/07/30 02:41:37;;;;;;;8.30;3.93;;;;;;;16.24;53.36;100716.22;6236647;28;20227;-48
2021/07/30 02:44:58;;;;;;;6.03;3.23;;;;;;;16.28;53.10;100718.66;6236039;28;20249;-52
2021/07/30 02:48:20;;;;;;;6.40;3.40;;;;;;;16.23;53.45;100720.63;6231064;28;20228;-51
2021/07/30 02:51:42;;;;;;;5.90;3.40;;;;;;;16.28;53.28;100708.16;6225265;28;20252;-54
2021/07/30 02:55:03;;;;;;;6.90;3.60;;;;;;;16.48;52.45;100715.38;6226685;28;20240;-53
2021/07/30 02:58:24;;;;;;;4.83;3.00;;;;;;;16.11;53.69;100706.13;6235714;28;20267;-53
2021/07/30 03:01:45;;;;;;;9.47;4.07;;;;;;;16.10;53.84;100716.69;6206996;28;20222;-51
2021/07/30 03:05:08;;;;;;;6.83;3.40;;;;;;;16.24;53.44;100708.31;6202695;28;20242;-48
2021/07/30 03:08:29;;;;;;;9.07;3.63;;;;;;;15.94;54.36;100719.81;6199514;28;20244;-51
2021/07/30 03:11:50;;;;;;;5.80;4.03;;;;;;;16.39;53.18;100715.69;6210407;28;20635;-52
2021/07/30 03:15:11;;;;;;;7.80;3.50;;;;;;;16.13;54.32;100713.97;6218754;28;20236;-51
2021/07/30 03:18:32;;;;;;;6.30;4.00;;;;;;;15.99;54.85;100721.44;6223793;28;20223;-51
2021/07/30 03:21:56;;;;;;;6.23;3.83;;;;;;;16.07;54.52;100707.16;6217550;28;20238;-52
2021/07/30 03:25:17;;;;;;;8.63;4.07;;;;;;;15.98;54.82;100714.47;6217425;28;20232;-50
2021/07/30 03:28:38;;;;;;;5.37;3.53;;;;;;;16.06;54.35;100720.31;6209181;28;20259;-52
2021/07/30 03:31:59;;;;;;;6.77;3.50;;;;;;;16.18;54.11;100712.03;6238069;28;20251;-50
2021/07/30 03:35:20;;;;;;;6.37;4.07;;;;;;;15.80;55.42;100722.03;6229755;28;20319;-51
2021/07/30 03:38:43;;;;;;;8.27;3.63;;;;;;;15.91;55.04;100726.94;6240312;28;20229;-51
2021/07/30 03:42:04;;;;;;;7.30;4.43;;;;;;;15.66;55.83;100732.06;6230820;28;20255;-50
2021/07/30 03:45:25;;;;;;;6.80;4.07;;;;;;;15.73;55.73;100710.88;6235757;28;20232;-53
2021/07/30 03:48:46;;;;;;;8.10;4.30;;;;;;;15.96;55.30;100717.16;6230119;28;20232;-50
2021/07/30 03:52:07;;;;;;;7.73;4.03;;;;;;;15.65;56.06;100712.84;6226722;28;20715;-52
2021/07/30 03:55:32;;;;;;;10.20;4.77;;;;;;;15.85;55.36;100706.13;6233787;28;20240;-51
2021/07/30 03:58:54;;;;;;;6.40;4.00;;;;;;;15.59;55.82;100712.19;6234471;28;20250;-50
2021/07/30 04:02:17;;;;;;;19.60;5.33;;;;;;;15.38;56.76;100713.72;6226867;28;20232;-47
2021/07/30 04:05:38;;;;;;;8.07;4.23;;;;;;;15.90;55.24;100718.19;6231083;28;20233;-51
2021/07/30 04:09:01;;;;;;;9.03;4.30;;;;;;;15.86;55.22;100713.97;6238892;28;20228;-54
2021/07/30 04:12:23;;;;;;;7.43;4.03;;;;;;;15.50;56.38;100718.56;6234502;28;20227;-49
2021/07/30 04:15:44;;;;;;;8.10;4.80;;;;;;;15.65;56.20;100727.75;6211212;28;20233;-53
2021/07/30 04:19:05;;;;;;;5.57;3.83;;;;;;;15.68;56.17;100717.13;6207517;28;20608;-51
2021/07/30 04:22:26;;;;;;;8.73;5.27;;;;;;;15.52;56.65;100725.50;6228382;28;20238;-50
2021/07/30 04:25:47;;;;;;;10.13;4.67;;;;;;;15.58;56.64;100726.22;6215650;28;20229;-48
2021/07/30 04:29:10;;;;;;;12.20;5.27;;;;;;;15.86;55.48;100721.84;6211520;28;20244;-49
2021/07/30 04:32:30;;;;;;;6.13;4.40;;;;;;;15.39;57.11;100720.66;6205463;28;20237;-50
2021/07/30 04:35:51;;;;;;;6.20;4.83;;;;;;;15.51;57.06;100720.31;6239294;28;20224;-50
2021/07/30 04:39:12;;;;;;;7.80;4.33;;;;;;;15.62;56.56;100712.94;6215086;28;20224;-48
2021/07/30 04:42:34;;;;;;;7.37;5.13;;;;;;;15.75;56.61;100721.31;6225943;28;20228;-51
2021/07/30 04:45:56;;;;;;;8.60;4.23;;;;;;;15.84;56.16;100715.78;6232758;28;20225;-54
2021/07/30 04:49:17;;;;;;;10.40;5.33;;;;;;;15.49;57.39;100722.09;6221509;28;20608;-52
2021/07/30 04:52:37;;;;;;;6.53;4.53;;;;;;;15.84;56.39;100722.78;6241592;28;20675;-52
2021/07/30 04:55:58;;;;;;;7.43;5.03;;;;;;;15.61;57.00;100718.25;6229865;28;20345;-53
2021/07/30 04:59:19;;;;;;;11.27;4.53;;;;;;;15.89;56.54;100718.25;6215927;28;20236;-52
2021/07/30 05:02:41;;;;;;;6.47;4.80;;;;;;;15.50;57.62;100731.69;6212448;28;20649;-47
2021/07/30 05:06:12;;;;;;;6.43;5.20;;;;;;;16.03;56.07;100713.41;6240230;28;20331;-54
2021/07/30 05:09:33;;;;;;;11.87;5.93;;;;;;;15.79;56.90;100729.97;6236505;28;20234;-51
2021/07/30 05:12:53;;;;;;;7.87;5.10;;;;;;;15.73;56.97;100721.38;6241589;28;20617;-51
2021/07/30 05:16:14;;;;;;;10.40;5.63;;;;;;;15.82;57.08;100712.34;6234094;28;20332;-51
2021/07/30 05:19:37;;;;;;;10.63;6.03;;;;;;;15.99;56.85;100714.41;6230451;28;20229;-49
2021/07/30 05:22:57;;;;;;;14.33;6.10;;;;;;;15.82;57.61;100717.59;6236241;28;20229;-50
2021/07/30 05:26:18;;;;;;;11.27;5.90;;;;;;;15.85;57.27;100724.50;6239460;28;20761;-52
2021/07/30 05:29:39;;;;;;;10.20;6.97;;;;;;;16.11;56.62;100714.00;6227840;28;20359;-49
2021/07/30 05:33:00;;;;;;;10.17;5.80;;;;;;;15.86;57.46;100726.25;6235997;28;20298;-50
2021/07/30 05:36:22;;;;;;;8.73;7.07;;;;;;;16.40;56.14;100722.66;6226969;28;20248;-51
2021/07/30 05:39:43;;;;;;;11.07;6.37;;;;;;;16.16;56.93;100732.22;6247550;28;20537;-51
2021/07/30 05:43:05;;;;;;;10.17;7.27;;;;;;;16.73;55.48;100723.25;6244505;28;20320;-53
2021/07/30 05:46:26;;;;;;;8.70;6.07;;;;;;;16.38;56.60;100713.97;6233729;28;20248;-50
2021/07/30 05:49:47;;;;;;;13.17;6.67;;;;;;;16.05;57.83;100735.22;6233958;28;20232;-50
2021/07/30 05:53:09;;;;;;;13.87;7.37;;;;;;;16.36;57.13;100723.66;6227254;28;20232;-51
2021/07/30 05:56:30;;;;;;;11.50;7.20;;;;;;;16.86;55.38;100733.34;6236410;28;20248;-52
2021/07/30 05:59:51;;;;;;;10.23;7.13;;;;;;;16.95;55.68;100725.13;6205743;28;20229;-51
2021/07/30 06:03:12;;;;;;;11.20;6.00;;;;;;;16.63;56.83;100727.09;6225921;28;20237;-49
2021/07/30 06:06:33;;;;;;;9.00;6.30;;;;;;;16.45;57.61;100725.13;6237287;28;20233;-52
2021/07/30 06:09:55;;;;;;;13.80;7.60;;;;;;;16.84;56.66;100727.28;6223076;28;20677;-52
2021/07/30 06:13:16;;;;;;;13.73;7.10;;;;;;;17.09;56.00;100728.06;6211677;28;20233;-51
2021/07/30 06:16:37;;;;;;;10.10;6.90;;;;;;;16.84;56.81;100733.38;6203990;28;20241;-51
2021/07/30 06:19:58;;;;;;;12.80;6.60;;;;;;;17.21;55.87;100716.22;6213699;28;20785;-52
2021/07/30 06:23:19;;;;;;;10.47;5.97;;;;;;;17.64;54.99;100726.84;6233532;28;20237;-50
2021/07/30 06:26:41;;;;;;;15.30;7.30;;;;;;;17.52;55.60;100721.19;6230877;28;20246;-50
2021/07/30 06:30:03;;;;;;;12.07;6.33;;;;;;;17.61;55.15;100724.38;6228965;28;20260;-50
2021/07/30 06:33:28;;;;;;;16.83;7.80;;;;;;;17.80;54.93;100719.22;6224372;28;20232;-50
2021/07/30 06:36:54;;;;;;;10.30;7.27;;;;;;;17.69;55.49;100720.50;6225217;28;20240;-50
2021/07/30 06:40:16;;;;;;;11.53;8.13;;;;;;;17.21;57.20;100720.63;6235788;28;20220;-49
2021/07/30 06:43:38;;;;;;;13.53;7.70;;;;;;;17.79;55.76;100715.72;6238175;28;20514;-53
2021/07/30 06:46:59;;;;;;;11.03;7.77;;;;;;;17.24;57.30;100723.16;6229613;28;20232;-52
2021/07/30 06:50:19;;;;;;;12.80;7.07;;;;;;;17.58;56.57;100713.94;6236136;28;21962;-47
2021/07/30 06:53:40;;;;;;;17.70;8.20;;;;;;;18.35;54.61;100711.66;6232984;28;20232;-52
2021/07/30 06:57:01;;;;;;;12.10;7.30;;;;;;;18.02;55.68;100721.84;6233601;28;20233;-49
2021/07/30 07:00:24;;;;;;;17.30;9.15;;;;;;;18.45;54.48;100712.09;6226801;28;20509;-50
2021/07/30 07:03:46;;;;;;;20.45;7.88;;;;;;;18.49;54.49;100711.94;6229802;28;20256;-48
2021/07/30 07:07:07;;;;;;;14.48;8.07;;;;;;;18.00;55.66;100713.16;6230269;28;20220;-51
2021/07/30 07:10:28;;;;;;;13.30;7.60;;;;;;;18.00;55.98;100715.78;6229912;28;20229;-48
2021/07/30 07:13:50;;;;;;;10.27;7.45;;;;;;;18.43;54.97;100716.59;6237942;28;20264;-51
2021/07/30 07:17:12;;;;;;;13.40;7.28;;;;;;;18.46;54.50;100724.38;6231387;28;20315;-48
2021/07/30 07:20:33;;;;;;;12.15;7.18;;;;;;;19.03;53.06;100720.09;6229327;28;20256;-49
2021/07/30 07:23:54;;;;;;;16.85;7.85;;;;;;;18.41;54.77;100716.66;6215916;28;20241;-49
2021/07/30 07:27:14;;;;;;;11.70;7.07;;;;;;;18.45;54.78;100720.88;6206066;28;20236;-51
2021/07/30 07:30:37;;;;;;;11.83;6.87;;;;;;;18.85;53.84;100713.03;6191387;28;20233;-52
2021/07/30 07:33:59;;;;;;;20.03;6.30;;;;;;;18.74;53.61;100713.47;6194412;28;20229;-51
2021/07/30 07:37:20;;;;;;;11.75;6.85;;;;;;;18.67;53.42;100714.69;6223294;28;20615;-53
2021/07/30 07:40:41;;;;;;;10.98;7.00;;;;;;;19.08;52.77;100715.47;6199377;28;20241;-49
2021/07/30 07:44:02;;;;;;;20.80;7.38;;;;;;;19.42;51.95;100724.44;6212608;28;20257;-46
2021/07/30 07:47:23;;;;;;;11.98;7.47;;;;;;;19.56;51.37;100715.00;6225278;28;20856;-49
2021/07/30 07:50:45;;;;;;;14.50;7.40;;;;;;;19.21;52.42;100709.59;6224863;28;20231;-49
2021/07/30 07:54:06;;;;;;;9.57;6.38;;;;;;;19.58;51.84;100706.09;6233038;28;20233;-53
2021/07/30 07:57:27;;;;;;;14.30;6.32;;;;;;;19.07;53.03;100705.81;6228533;28;20233;-50
2021/07/30 08:00:48;;;;;;;9.30;6.82;;;;;;;19.32;52.39;100707.31;6225203;28;21072;-47
2021/07/30 08:04:09;;;;;;;10.07;6.53;;;;;;;19.28;52.58;100703.13;6224979;28;20244;-51
2021/07/30 08:07:31;;;;;;;15.48;6.65;;;;;;;19.98;51.05;100698.84;6233417;28;20508;-52
2021/07/30 08:10:52;;;;;;;17.45;6.57;;;;;;;19.84;51.12;100704.00;6234074;28;20233;-52
2021/07/30 08:14:13;;;;;;;11.68;5.70;;;;;;;20.56;52.22;100702.94;6233451;28;20228;-68
2021/07/30 08:17:35;;;;;;;12.82;5.22;;;;;;;20.83;48.22;100702.44;6228419;28;20223;-66
2021/07/30 08:20:56;;;;;;;13.90;5.85;;;;;;;20.78;48.82;100705.34;6214908;28;20231;-67
2021/07/30 08:24:18;;;;;;;14.02;6.45;;;;;;;20.44;49.07;100703.59;6230878;28;20719;-49
2021/07/30 08:27:39;;;;;;;8.73;6.07;;;;;;;21.03;47.24;100704.88;6232460;28;20233;-50
2021/07/30 08:31:01;;;;;;;7.95;5.07;;;;;;;20.89;46.67;100709.22;6198413;28;20616;-52
2021/07/30 08:34:22;;;;;;;10.90;6.28;;;;;;;20.06;48.84;100719.63;6216248;28;20261;-52
2021/07/30 08:37:43;;;;;;;10.23;4.85;;;;;;;20.04;48.04;100718.84;6210874;28;20638;-50
2021/07/30 08:41:05;;;;;;;9.63;4.45;;;;;;;21.01;46.41;100712.06;6214831;28;20253;-50
2021/07/30 08:44:27;;;;;;;6.55;4.65;;;;;;;20.80;47.52;100710.53;6199029;28;20807;-48
2021/07/30 08:47:49;;;;;;;9.45;5.18;;;;;;;20.87;47.50;100704.00;6213481;28;20233;-52
2021/07/30 08:51:15;;;;;;;7.93;4.93;;;;;;;20.73;46.03;100714.47;6202346;28;20855;-49
2021/07/30 08:54:36;;;;;;;7.88;4.30;;;;;;;21.37;44.76;100710.94;6196510;28;20225;-49
2021/07/30 08:57:58;;;;;;;8.75;4.80;;;;;;;21.28;44.84;100714.09;6221886;28;20237;-51
2021/07/30 09:01:19;;;;;;;9.65;4.97;;;;;;;21.78;44.01;100710.44;6226796;28;20319;-48
2021/07/30 09:04:40;;;;;;;8.82;3.97;;;;;;;20.65;44.21;100715.72;6233448;28;20228;-49
2021/07/30 09:08:03;;;;;;;6.32;3.30;;;;;;;21.49;42.56;100716.53;6246233;28;20573;-49
2021/07/30 09:11:28;;;;;;;5.93;4.03;;;;;;;21.46;42.19;100724.66;6237306;28;20609;-51
2021/07/30 09:14:50;;;;;;;11.90;4.47;;;;;;;21.77;42.32;100710.50;6234611;28;20232;-45
2021/07/30 09:18:25;;;;;;;8.73;3.92;;;;;;;21.69;41.42;100705.66;6235889;28;20244;-53
2021/07/30 09:21:46;;;;;;;9.02;3.88;;;;;;;22.20;41.24;100695.59;6233137;28;20626;-51
2021/07/30 09:25:08;;;;;;;9.15;3.92;;;;;;;21.85;41.94;100707.41;6227632;28;20343;-61
2021/07/30 09:28:29;;;;;;;10.35;3.97;;;;;;;22.22;41.77;100703.47;6237076;28;20233;-60
2021/07/30 09:31:53;;;;;;;7.97;3.80;;;;;;;22.21;40.60;100699.94;6244280;28;20767;-62
2021/07/30 09:35:13;;;;;;;4.93;3.65;;;;;;;22.13;40.75;100706.66;6237125;28;20574;-62
2021/07/30 09:38:34;;;;;;;6.60;4.32;;;;;;;21.43;41.33;100700.03;6219266;28;20251;-60
2021/07/30 09:42:00;;;;;;;6.80;3.35;;;;;;;21.77;40.46;100695.47;6204728;28;20231;-62
2021/07/30 09:45:32;;;;;;;7.70;4.20;;;;;;;22.37;39.65;100699.06;6237744;28;20228;-61
2021/07/30 09:48:54;;;;;;;9.02;3.30;;;;;;;21.71;40.14;100711.72;6247464;28;20275;-57
2021/07/30 09:52:17;;;;;;;7.47;3.17;;;;;;;22.42;39.14;100695.19;6233738;28;20236;-60
2021/07/30 09:55:40;;;;;;;9.25;3.13;;;;;;;22.55;38.86;100691.81;6237505;28;20308;-62
2021/07/30 09:59:01;;;;;;;3.45;2.45;;;;;;;23.42;37.67;100689.91;6239408;28;20541;-61
2021/07/30 10:02:23;;;;;;;3.17;2.88;;;;;;;23.89;36.46;100686.81;6230081;28;20248;-62
2021/07/30 10:05:45;;;;;;;4.45;3.10;;;;;;;23.68;36.70;100688.22;6230442;28;20289;-62
2021/07/30 10:09:07;;;;;;;4.20;3.15;;;;;;;23.00;37.83;100682.75;6215119;28;20237;-63
2021/07/30 10:12:29;;;;;;;5.03;2.75;;;;;;;23.25;37.23;100686.56;6230036;28;20503;-63
2021/07/30 10:15:51;;;;;;;4.18;3.03;;;;;;;23.77;38.03;100687.59;6252156;28;20235;-61
2021/07/30 10:19:12;;;;;;;5.65;3.25;;;;;;;22.82;37.18;100673.31;6229971;28;20610;-63
2021/07/30 10:22:41;;;;;;;6.70;3.42;;;;;;;23.54;36.37;100674.03;6221722;28;20923;-63
2021/07/30 10:26:02;;;;;;;4.85;3.03;;;;;;;24.35;35.61;100661.56;6239762;28;20323;-62
2021/07/30 10:29:23;;;;;;;3.25;2.42;;;;;;;24.13;35.66;100657.69;6235814;28;20559;-63
2021/07/30 10:32:47;;;;;;;5.55;2.85;;;;;;;23.92;34.61;100644.06;6228836;28;20831;-63
2021/07/30 10:36:12;;;;;;;4.70;2.70;;;;;;;23.58;34.00;100656.06;6234163;28;20228;-50
2021/07/30 10:39:34;;;;;;;4.95;2.70;;;;;;;22.77;36.64;100651.50;6228963;28;20311;-52
2021/07/30 10:43:06;;;;;;;5.03;2.92;;;;;;;23.33;35.31;100646.19;6224166;28;20264;-48
2021/07/30 10:46:27;;;;;;;8.77;3.08;;;;;;;24.14;34.49;100642.59;6201542;28;20226;-50
2021/07/30 10:49:48;;;;;;;4.18;2.83;;;;;;;24.87;33.26;100649.94;6206798;28;20610;-50
2021/07/30 10:53:43;;;;;;;6.20;2.83;;;;;;;23.90;35.03;100645.09;6226601;28;20264;-51
2021/07/30 10:57:05;;;;;;;4.47;2.85;;;;;;;24.33;33.49;100640.38;6219012;28;20221;-49
2021/07/30 11:00:54;;;;;;;4.55;2.45;;;;;;;24.76;32.99;100650.69;6243666;28;20224;-52
2021/07/30 11:04:15;;;;;;;2.60;2.40;;;;;;;24.00;34.13;100648.00;6221473;28;20239;-65
2021/07/30 11:07:36;;;;;;;3.38;2.85;;;;;;;24.41;34.95;100642.50;6238757;28;20228;-63
2021/07/30 11:11:08;;;;;;;3.70;2.53;;;;;;;25.09;31.90;100645.69;6227791;28;20233;-64
2021/07/30 11:14:32;;;;;;;3.92;2.45;;;;;;;24.38;33.14;100640.03;6218783;28;20232;-64
2021/07/30 11:17:53;;;;;;;6.30;3.30;;;;;;;23.74;33.56;100645.25;6216713;28;20229;-64
2021/07/30 11:21:14;;;;;;;3.55;2.75;;;;;;;23.44;34.26;100632.19;6240430;28;20252;-64
2021/07/30 11:24:38;;;;;;;5.05;2.50;;;;;;;23.60;34.01;100638.22;6222161;28;20228;-63
2021/07/30 11:28:00;;;;;;;3.58;2.70;;;;;;;23.72;34.39;100637.38;6228875;28;20221;-65
2021/07/30 11:31:23;;;;;;;4.80;3.00;;;;;;;23.92;34.10;100638.75;6230021;28;20225;-64
2021/07/30 11:34:46;;;;;;;4.18;2.70;;;;;;;24.12;33.47;100632.06;6224400;28;20229;-63
2021/07/30 11:38:07;;;;;;;5.40;2.88;;;;;;;24.16;33.91;100644.19;6227526;28;20310;-65
2021/07/30 11:41:28;;;;;;;6.68;2.78;;;;;;;24.84;33.30;100642.13;6213540;28;20224;-63
2021/07/30 11:44:51;;;;;;;6.72;2.55;;;;;;;23.64;33.77;100637.06;6223458;28;20236;-66
2021/07/30 11:48:15;;;;;;;7.70;3.30;;;;;;;23.80;33.63;100636.06;6222579;28;20233;-51
2021/07/30 11:51:39;;;;;;;6.25;3.47;;;;;;;23.30;33.86;100631.31;6220137;28;20447;-52
2021/07/30 11:55:13;;;;;;;3.85;2.53;;;;;;;24.16;32.80;100632.72;6223357;28;20232;-50
2021/07/30 11:58:34;;;;;;;3.78;2.42;;;;;;;24.54;32.55;100623.88;6220160;28;20661;-52
2021/07/30 12:02:04;;;;;;;6.38;3.05;;;;;;;24.89;32.30;100629.34;6226086;28;20244;-49
2021/07/30 12:05:33;;;;;;;5.50;3.03;;;;;;;25.22;31.24;100627.88;6227935;28;20899;-50
2021/07/30 12:08:54;;;;;;;5.22;3.17;;;;;;;25.51;31.05;100622.19;6243953;28;20637;-51
2021/07/30 12:12:16;;;;;;;6.65;3.35;;;;;;;25.78;30.41;100605.91;6238405;28;20232;-54
2021/07/30 12:15:39;;;;;;;4.88;3.47;;;;;;;25.08;31.00;100604.88;6224748;28;20228;-53
2021/07/30 12:19:00;;;;;;;5.30;2.95;;;;;;;24.70;31.18;100615.66;6224609;28;20236;-52
2021/07/30 12:22:33;;;;;;;6.05;3.58;;;;;;;24.80;31.45;100606.03;6195383;28;20233;-53
2021/07/30 12:25:56;;;;;;;4.78;2.83;;;;;;;25.87;29.78;100599.03;6203189;28;20237;-54
2021/07/30 12:29:39;;;;;;;3.88;2.60;;;;;;;26.25;30.23;100597.88;6212802;28;20708;-49
2021/07/30 12:33:00;;;;;;;5.88;3.25;;;;;;;26.49;28.85;100605.81;6224055;28;20618;-47
2021/07/30 12:36:32;;;;;;;7.60;3.10;;;;;;;26.37;29.68;100591.59;6227839;28;20228;-51
2021/07/30 12:39:55;;;;;;;7.13;3.13;;;;;;;25.54;30.31;100592.63;6229954;28;20316;-51
2021/07/30 12:43:18;;;;;;;7.65;3.13;;;;;;;26.42;29.09;100584.06;6229247;28;20348;-52
2021/07/30 12:46:43;;;;;;;8.00;2.97;;;;;;;29.83;25.45;100590.47;6228807;28;20249;-53
2021/07/30 12:50:24;;;;;;;4.28;2.65;;;;;;;30.66;23.05;100577.19;6229638;28;20848;-49
2021/07/30 12:53:58;;;;;;;11.85;3.75;;;;;;;27.33;25.67;100592.78;6225008;28;20229;-49
2021/07/30 12:57:21;;;;;;;6.18;3.25;;;;;;;30.32;22.50;100580.47;6240664;28;20224;-51
2021/07/30 13:00:43;;;;;;;16.75;5.47;;;;;;;30.72;22.10;100579.25;6232972;28;20315;-51
2021/07/30 13:04:12;;;;;;;4.95;2.90;;;;;;;29.68;22.41;100578.47;6245015;28;20615;-53
2021/07/30 13:07:33;;;;;;;7.07;3.22;;;;;;;30.43;21.64;100574.88;6214969;28;20285;-48
2021/07/30 13:10:54;;;;;;;4.55;3.08;;;;;;;33.34;18.87;100566.56;6230244;28;20635;-47
2021/07/30 13:14:16;;;;;;;5.40;2.47;;;;;;;33.94;17.17;100568.03;6212550;28;20236;-49
2021/07/30 13:17:38;;;;;;;4.10;2.97;;;;;;;30.30;20.57;100570.81;6208002;28;20344;-48
2021/07/30 13:20:59;;;;;;;6.35;3.15;;;;;;;30.55;20.95;100558.56;6224416;28;20229;-52
2021/07/30 13:24:19;;;;;;;4.30;2.50;;;;;;;32.03;19.59;100551.84;6230053;28;20225;-49
2021/07/30 13:27:40;;;;;;;4.25;3.35;;;;;;;33.67;17.51;100541.44;6203626;28;20969;-49
2021/07/30 13:31:03;;;;;;;5.28;3.20;;;;;;;36.19;16.10;100539.13;6195447;28;20225;-52
2021/07/30 13:34:24;;;;;;;5.20;3.50;;;;;;;32.01;19.45;100546.63;6203049;28;20346;-52
2021/07/30 13:37:44;;;;;;;5.22;2.67;;;;;;;29.06;23.04;100554.59;6204702;28;20233;-48
2021/07/30 13:41:11;;;;;;;6.15;3.58;;;;;;;28.60;23.78;100553.44;6209238;28;20359;-53
2021/07/30 13:44:31;;;;;;;4.05;2.58;;;;;;;29.00;22.60;100552.50;6194307;28;20230;-50
2021/07/30 13:47:54;;;;;;;4.93;2.90;;;;;;;27.21;25.20;100543.00;6227871;28;20240;-50
2021/07/30 13:51:14;;;;;;;6.70;2.70;;;;;;;30.97;20.70;100536.53;6221055;28;20323;-49
2021/07/30 13:54:39;;;;;;;6.65;2.85;;;;;;;31.07;20.57;100536.47;6245495;28;20263;-46
2021/07/30 13:58:00;;;;;;;2.58;2.38;;;;;;;32.64;19.28;100537.31;6211130;28;20520;-50
2021/07/30 14:01:20;;;;;;;3.95;2.90;;;;;;;32.53;19.26;100537.56;6218074;28;20224;-53
2021/07/30 14:04:43;;;;;;;3.75;2.35;;;;;;;30.23;21.58;100524.94;6209050;28;20320;-54
2021/07/30 14:08:04;;;;;;;3.92;1.90;;;;;;;31.15;20.38;100534.69;6231164;28;20237;-48
2021/07/30 14:11:25;;;;;;;3.90;3.05;;;;;;;30.76;20.99;100526.06;6217110;28;20658;-49
2021/07/30 14:14:45;;;;;;;3.90;3.47;;;;;;;29.72;22.15;100528.88;6216326;28;20534;-50
2021/07/30 14:18:08;;;;;;;4.40;2.80;;;;;;;29.12;23.06;100531.75;6190329;28;20233;-52
2021/07/30 14:21:32;;;;;;;5.53;3.42;;;;;;;29.88;22.38;100518.44;6205788;28;20229;-50
2021/07/30 14:24:53;;;;;;;6.85;3.00;;;;;;;29.50;23.54;100520.19;6215455;28;20234;-49
2021/07/30 14:28:14;;;;;;;3.92;2.60;;;;;;;28.51;24.34;100522.06;6208372;28;20244;-52
2021/07/30 14:31:35;;;;;;;7.70;3.58;;;;;;;28.12;25.11;100522.78;6234419;28;20228;-51
2021/07/30 14:34:56;;;;;;;4.30;3.08;;;;;;;27.22;26.05;100515.28;6206863;28;20225;-48
2021/07/30 14:38:18;;;;;;;4.65;2.83;;;;;;;26.87;26.38;100509.25;6219752;28;20277;-46
2021/07/30 14:41:39;;;;;;;4.45;3.75;;;;;;;26.67;26.59;100526.91;6236875;28;20597;-49
2021/07/30 14:45:01;;;;;;;4.07;3.15;;;;;;;27.61;25.85;100527.16;6216911;28;20238;-51
2021/07/30 14:48:22;;;;;;;3.95;2.40;;;;;;;27.99;25.35;100523.00;6218431;28;20805;-52
2021/07/30 14:51:43;;;;;;;4.00;3.05;;;;;;;27.60;26.21;100520.09;6224819;28;20607;-48
2021/07/30 14:55:06;;;;;;;5.05;3.05;;;;;;;28.53;25.35;100523.66;6210030;28;20229;-50
2021/07/30 14:58:27;;;;;;;3.95;3.13;;;;;;;28.26;25.49;100518.88;6212943;28;20233;-53
2021/07/30 15:01:48;;;;;;;4.07;2.58;;;;;;;27.67;26.42;100507.91;6222297;28;20232;-50
2021/07/30 15:05:09;;;;;;;3.85;2.30;;;;;;;26.84;27.49;100514.00;6208985;28;20234;-53
2021/07/30 15:08:30;;;;;;;3.40;2.42;;;;;;;27.22;27.41;100523.31;6230785;28;20232;-51
2021/07/30 15:11:52;;;;;;;4.53;2.72;;;;;;;27.72;26.70;100506.66;6229335;28;20528;-49
2021/07/30 15:15:13;;;;;;;5.97;3.42;;;;;;;27.95;26.78;100505.53;6222878;28;20616;-51
2021/07/30 15:18:36;;;;;;;4.13;2.47;;;;;;;27.20;27.78;100510.09;6222724;28;20228;-51
2021/07/30 15:21:57;;;;;;;3.75;2.78;;;;;;;26.63;28.26;100514.78;6227551;28;20232;-52
2021/07/30 15:25:18;;;;;;;7.43;3.30;;;;;;;27.53;27.73;100502.91;6216024;28;20234;-50
2021/07/30 15:28:40;;;;;;;3.40;2.75;;;;;;;26.23;29.40;100509.97;6214787;28;20923;-48
2021/07/30 15:32:01;;;;;;;5.13;3.28;;;;;;;26.29;29.56;100504.13;6209119;28;20324;-54
2021/07/30 15:35:22;;;;;;;6.38;3.40;;;;;;;26.80;29.17;100508.06;6217303;28;20237;-52
2021/07/30 15:38:43;;;;;;;5.00;3.15;;;;;;;27.27;28.22;100516.63;6219871;28;20688;-48